createdAt,value
2017-08-29T00:00:57.887Z,4.93
2017-08-29T00:03:25.279Z,4.23
2017-08-29T00:05:52.678Z,4.33
2017-08-29T00:08:20.072Z,5.83
2017-08-29T00:10:47.451Z,4.87
2017-08-29T00:13:14.852Z,7.60
2017-08-29T00:15:42.236Z,5.93
2017-08-29T00:18:09.630Z,3.93
2017-08-29T00:20:37.026Z,4.93
2017-08-29T00:23:04.411Z,4.50
2017-08-29T00:25:31.807Z,5.20
2017-08-29T00:27:59.198Z,5.60
2017-08-29T00:30:26.591Z,4.17
2017-08-29T00:32:53.986Z,4.10
2017-08-29T00:35:21.379Z,4.20
2017-08-29T00:37:48.767Z,4.43
2017-08-29T00:40:16.163Z,5.47
2017-08-29T00:42:43.550Z,4.33
2017-08-29T00:45:11.171Z,4.20
2017-08-29T00:47:38.586Z,4.50
2017-08-29T00:50:06.290Z,7.07
2017-08-29T00:52:33.683Z,4.10
2017-08-29T00:55:01.083Z,4.70
2017-08-29T00:57:28.466Z,4.83
2017-08-29T00:59:55.864Z,4.30
2017-08-29T01:02:23.251Z,5.73
2017-08-29T01:04:50.648Z,4.07
2017-08-29T01:07:18.038Z,5.23
2017-08-29T01:09:45.438Z,4.93
2017-08-29T01:12:12.826Z,4.97
2017-08-29T01:14:40.222Z,6.00
2017-08-29T01:17:07.615Z,4.37
2017-08-29T01:19:35.006Z,6.90
2017-08-29T01:22:02.392Z,8.90
2017-08-29T01:24:30.067Z,5.80
2017-08-29T01:26:57.455Z,5.17
2017-08-29T01:29:24.856Z,6.53
2017-08-29T01:31:52.240Z,6.57
2017-08-29T01:34:19.626Z,9.27
2017-08-29T01:36:47.016Z,4.07
2017-08-29T01:39:14.410Z,5.20
2017-08-29T01:41:42.055Z,5.97
2017-08-29T01:44:09.715Z,4.03
2017-08-29T01:46:37.104Z,7.60
2017-08-29T01:49:04.486Z,4.70
2017-08-29T01:51:31.883Z,5.40
2017-08-29T01:53:59.268Z,4.10
2017-08-29T01:56:26.666Z,7.93
2017-08-29T01:58:54.054Z,4.73
2017-08-29T02:01:21.454Z,11.33
2017-08-29T02:03:48.843Z,4.20
2017-08-29T02:06:16.245Z,4.47
2017-08-29T02:08:43.635Z,6.90
2017-08-29T02:11:11.031Z,5.20
2017-08-29T02:13:38.427Z,6.50
2017-08-29T02:16:05.819Z,4.13
2017-08-29T02:18:33.206Z,6.40
2017-08-29T02:21:00.604Z,3.93
2017-08-29T02:23:27.991Z,6.27
2017-08-29T02:25:55.390Z,4.83
2017-08-29T02:28:22.778Z,4.33
2017-08-29T02:30:50.175Z,5.90
2017-08-29T02:33:17.572Z,7.60
2017-08-29T02:35:44.963Z,5.10
2017-08-29T02:38:12.360Z,4.97
2017-08-29T02:40:39.746Z,4.23
2017-08-29T02:43:07.150Z,4.33
2017-08-29T02:45:34.527Z,4.07
2017-08-29T02:48:01.927Z,5.40
2017-08-29T02:50:29.319Z,3.90
2017-08-29T02:52:56.719Z,9.53
2017-08-29T02:55:24.103Z,5.07
2017-08-29T02:57:51.774Z,3.87
2017-08-29T03:00:19.166Z,5.13
2017-08-29T03:02:46.550Z,3.40
2017-08-29T03:05:13.935Z,3.73
2017-08-29T03:07:41.334Z,3.23
2017-08-29T03:10:08.717Z,9.87
2017-08-29T03:12:36.411Z,5.77
2017-08-29T03:15:03.799Z,5.57
2017-08-29T03:17:31.204Z,5.10
2017-08-29T03:19:58.584Z,5.07
2017-08-29T03:22:25.974Z,5.33
2017-08-29T03:24:53.362Z,9.57
2017-08-29T03:27:20.766Z,4.63
2017-08-29T03:29:48.151Z,6.10
2017-08-29T03:32:15.547Z,8.23
2017-08-29T03:34:42.927Z,5.13
2017-08-29T03:37:10.874Z,3.73
2017-08-29T03:39:38.267Z,7.13
2017-08-29T03:42:05.889Z,3.97
2017-08-29T03:44:33.283Z,7.20
2017-08-29T03:47:00.671Z,5.93
2017-08-29T03:49:28.068Z,4.00
2017-08-29T03:51:55.447Z,6.10
2017-08-29T03:54:22.901Z,4.80
2017-08-29T03:56:50.275Z,5.60
2017-08-29T03:59:17.671Z,4.90
2017-08-29T04:01:45.063Z,4.00
2017-08-29T04:04:12.455Z,5.03
2017-08-29T04:06:39.843Z,3.90
2017-08-29T04:09:07.245Z,3.40
2017-08-29T04:11:34.634Z,4.00
2017-08-29T04:14:02.024Z,3.80
2017-08-29T04:16:29.428Z,5.03
2017-08-29T04:18:56.831Z,5.87
2017-08-29T04:21:24.234Z,3.70
2017-08-29T04:23:51.622Z,4.47
2017-08-29T04:26:19.014Z,4.00
2017-08-29T04:28:46.409Z,16.77
2017-08-29T04:31:13.807Z,4.10
2017-08-29T04:33:41.411Z,4.13
2017-08-29T04:36:08.910Z,4.57
2017-08-29T04:38:36.328Z,7.10
2017-08-29T04:41:03.730Z,4.33
2017-08-29T04:43:31.122Z,4.33
2017-08-29T04:45:58.531Z,3.87
2017-08-29T04:48:25.973Z,4.07
2017-08-29T04:50:53.358Z,4.53
2017-08-29T04:53:20.762Z,4.17
2017-08-29T04:55:48.155Z,8.00
2017-08-29T04:58:15.551Z,4.90
2017-08-29T05:00:42.941Z,5.67
2017-08-29T05:03:10.332Z,5.10
2017-08-29T05:05:37.727Z,6.03
2017-08-29T05:08:05.119Z,4.90
2017-08-29T05:10:32.506Z,5.47
2017-08-29T05:12:59.899Z,10.90
2017-08-29T05:15:27.290Z,5.17
2017-08-29T05:17:54.699Z,5.60
2017-08-29T05:20:22.107Z,8.27
2017-08-29T05:22:49.504Z,4.77
2017-08-29T05:25:16.896Z,6.97
2017-08-29T05:27:44.282Z,5.33
2017-08-29T05:30:11.674Z,4.20
2017-08-29T05:32:39.069Z,6.37
2017-08-29T05:35:06.451Z,9.03
2017-08-29T05:37:33.847Z,5.00
2017-08-29T05:40:01.239Z,7.83
2017-08-29T05:42:28.630Z,9.93
2017-08-29T05:44:56.011Z,8.67
2017-08-29T05:47:23.714Z,7.10
2017-08-29T05:49:51.101Z,5.67
2017-08-29T05:52:18.727Z,8.10
2017-08-29T05:54:46.391Z,7.67
2017-08-29T05:57:14.051Z,7.03
2017-08-29T05:59:41.457Z,9.63
2017-08-29T06:02:08.841Z,5.85
2017-08-29T06:04:36.251Z,7.10
2017-08-29T06:07:03.650Z,9.50
2017-08-29T06:09:31.046Z,6.03
2017-08-29T06:11:58.426Z,5.17
2017-08-29T06:14:25.826Z,12.50
2017-08-29T06:16:53.215Z,4.77
2017-08-29T06:19:20.618Z,15.47
2017-08-29T06:21:47.999Z,9.10
2017-08-29T06:24:15.395Z,7.40
2017-08-29T06:26:42.780Z,8.73
2017-08-29T06:29:10.183Z,5.17
2017-08-29T06:31:37.576Z,8.30
2017-08-29T06:34:04.970Z,7.90
2017-08-29T06:36:32.365Z,5.93
2017-08-29T06:38:59.759Z,6.87
2017-08-29T06:41:27.138Z,7.90
2017-08-29T06:43:54.555Z,6.87
2017-08-29T06:46:21.938Z,7.07
2017-08-29T06:48:49.317Z,5.27
2017-08-29T06:51:16.972Z,4.50
2017-08-29T06:53:44.362Z,4.63
2017-08-29T06:56:11.754Z,5.03
2017-08-29T06:58:39.138Z,7.00
2017-08-29T07:01:06.799Z,4.47
2017-08-29T07:03:34.187Z,3.87
2017-08-29T07:06:01.587Z,10.47
2017-08-29T07:08:28.979Z,14.60
2017-08-29T07:10:56.380Z,17.07
2017-08-29T07:13:23.767Z,12.40
2017-08-29T07:15:51.172Z,21.47
2017-08-29T07:18:18.567Z,13.93
2017-08-29T07:20:45.954Z,4.50
2017-08-29T07:23:13.346Z,5.20
2017-08-29T07:25:40.744Z,4.70
2017-08-29T07:28:08.275Z,3.53
2017-08-29T07:30:35.671Z,6.13
2017-08-29T07:33:03.054Z,6.70
2017-08-29T07:35:30.447Z,4.60
2017-08-29T07:37:57.843Z,4.00
2017-08-29T07:40:25.228Z,5.57
2017-08-29T07:42:52.622Z,4.83
2017-08-29T07:45:20.234Z,13.57
2017-08-29T07:47:47.629Z,4.23
2017-08-29T07:50:15.019Z,4.90
2017-08-29T07:52:42.417Z,3.47
2017-08-29T07:55:09.806Z,3.97
2017-08-29T07:57:37.200Z,3.70
2017-08-29T08:00:04.595Z,4.67
2017-08-29T08:02:31.991Z,23.73
2017-08-29T08:04:59.375Z,8.13
2017-08-29T08:07:26.767Z,3.67
2017-08-29T08:09:54.165Z,13.13
2017-08-29T08:12:21.559Z,4.37
2017-08-29T08:14:49.162Z,4.20
2017-08-29T08:17:16.552Z,5.00
2017-08-29T08:19:43.952Z,6.33
2017-08-29T08:22:11.335Z,5.50
2017-08-29T08:24:38.726Z,6.73
2017-08-29T08:27:06.114Z,3.50
2017-08-29T08:29:33.518Z,11.93
2017-08-29T08:32:00.910Z,6.43
2017-08-29T08:34:28.307Z,5.53
2017-08-29T08:36:55.686Z,5.00
2017-08-29T08:39:23.083Z,4.27
2017-08-29T08:41:50.479Z,7.20
2017-08-29T08:44:17.890Z,5.97
2017-08-29T08:46:45.291Z,4.80
2017-08-29T08:49:12.691Z,4.60
2017-08-29T08:51:40.083Z,4.30
2017-08-29T08:54:07.489Z,6.87
2017-08-29T08:56:35.083Z,4.60
2017-08-29T08:59:02.479Z,9.13
2017-08-29T09:01:29.871Z,10.40
2017-08-29T09:03:57.281Z,5.30
2017-08-29T09:06:24.659Z,3.83
2017-08-29T09:08:52.072Z,4.87
2017-08-29T09:11:19.452Z,5.67
2017-08-29T09:13:47.063Z,4.60
2017-08-29T09:16:14.454Z,11.97
2017-08-29T09:18:41.848Z,4.77
2017-08-29T09:21:09.238Z,6.37
2017-08-29T09:23:36.639Z,5.83
2017-08-29T09:26:04.032Z,6.97
2017-08-29T09:28:31.431Z,6.10
2017-08-29T09:30:58.823Z,8.90
2017-08-29T09:33:26.218Z,7.80
2017-08-29T09:35:53.619Z,12.03
2017-08-29T09:38:21.012Z,11.93
2017-08-29T09:40:48.415Z,16.10
2017-08-29T09:43:15.823Z,6.70
2017-08-29T09:45:43.211Z,11.07
2017-08-29T09:48:10.608Z,8.23
2017-08-29T09:50:38.009Z,9.80
2017-08-29T09:53:05.411Z,10.53
2017-08-29T09:55:32.807Z,13.40
2017-08-29T09:58:00.202Z,13.40
2017-08-29T10:00:27.611Z,11.33
2017-08-29T10:02:55.011Z,11.90
2017-08-29T10:05:22.419Z,12.27
2017-08-29T10:07:49.818Z,15.70
2017-08-29T10:10:17.220Z,12.20
2017-08-29T10:12:44.644Z,19.23
2017-08-29T10:15:12.062Z,17.30
2017-08-29T10:17:39.459Z,16.30
2017-08-29T10:20:06.879Z,12.80
2017-08-29T10:22:34.284Z,13.67
2017-08-29T10:25:01.690Z,11.37
2017-08-29T10:27:29.095Z,12.63
2017-08-29T10:29:56.503Z,17.80
2017-08-29T10:32:23.895Z,17.03
2017-08-29T10:34:51.310Z,14.23
2017-08-29T10:37:18.712Z,13.70
2017-08-29T10:39:46.120Z,12.83
2017-08-29T10:42:13.731Z,13.00
2017-08-29T10:44:41.131Z,24.43
2017-08-29T10:47:08.532Z,14.83
2017-08-29T10:49:35.954Z,21.20
2017-08-29T10:52:03.360Z,19.23
2017-08-29T10:54:30.771Z,11.40
2017-08-29T10:56:58.168Z,12.20
2017-08-29T10:59:25.584Z,13.50
2017-08-29T11:01:52.987Z,15.83
2017-08-29T11:04:20.387Z,23.70
2017-08-29T11:06:47.799Z,19.70
2017-08-29T11:09:15.195Z,11.77
2017-08-29T11:11:42.587Z,10.13
2017-08-29T11:14:09.979Z,9.37
2017-08-29T11:16:37.398Z,10.43
2017-08-29T11:19:04.791Z,10.93
2017-08-29T11:21:32.199Z,11.33
2017-08-29T11:23:59.611Z,14.03
2017-08-29T11:26:27.023Z,18.57
2017-08-29T11:28:54.437Z,13.53
2017-08-29T11:31:21.840Z,13.53
2017-08-29T11:33:49.461Z,9.70
2017-08-29T11:36:16.883Z,10.23
2017-08-29T11:38:44.294Z,10.23
2017-08-29T11:41:11.682Z,10.63
2017-08-29T11:43:39.199Z,12.70
2017-08-29T11:46:06.764Z,13.73
2017-08-29T11:48:34.162Z,12.53
2017-08-29T11:51:01.567Z,9.67
2017-08-29T11:53:28.974Z,12.43
2017-08-29T11:55:56.375Z,15.23
2017-08-29T11:58:23.774Z,19.20
2017-08-29T12:00:53.724Z,10.93
2017-08-29T12:03:21.172Z,11.73
2017-08-29T12:05:48.576Z,13.10
2017-08-29T12:08:15.994Z,13.17
2017-08-29T12:10:43.603Z,16.40
2017-08-29T12:13:11.003Z,8.37
2017-08-29T12:15:38.386Z,8.83
2017-08-29T12:18:05.791Z,12.10
2017-08-29T12:20:33.195Z,11.10
2017-08-29T12:23:00.587Z,10.60
2017-08-29T12:25:27.979Z,10.73
2017-08-29T12:27:55.381Z,13.00
2017-08-29T12:30:22.767Z,9.67
2017-08-29T12:32:50.168Z,9.77
2017-08-29T12:35:17.568Z,10.13
2017-08-29T12:37:44.977Z,13.00
2017-08-29T12:40:12.365Z,12.23
2017-08-29T12:42:39.768Z,11.63
2017-08-29T12:45:07.178Z,12.60
2017-08-29T12:47:34.567Z,10.20
2017-08-29T12:50:01.988Z,7.80
2017-08-29T12:52:29.379Z,9.90
2017-08-29T12:54:56.783Z,8.17
2017-08-29T12:57:24.182Z,7.53
2017-08-29T12:59:51.575Z,9.93
2017-08-29T13:02:18.977Z,10.07
2017-08-29T13:04:46.376Z,9.43
2017-08-29T13:07:13.792Z,8.80
2017-08-29T13:09:41.411Z,12.03
2017-08-29T13:12:08.817Z,8.73
2017-08-29T13:14:36.790Z,7.90
2017-08-29T13:17:04.187Z,10.97
2017-08-29T13:19:31.595Z,10.80
2017-08-29T13:21:58.984Z,8.40
2017-08-29T13:24:26.377Z,7.63
2017-08-29T13:26:53.783Z,9.47
2017-08-29T13:29:21.200Z,13.20
2017-08-29T13:31:48.617Z,8.73
2017-08-29T13:34:16.016Z,10.83
2017-08-29T13:36:43.615Z,9.57
2017-08-29T13:39:11.024Z,11.67
2017-08-29T13:41:38.416Z,9.33
2017-08-29T13:44:05.810Z,10.00
2017-08-29T13:46:33.743Z,8.80
2017-08-29T13:49:01.139Z,9.63
2017-08-29T13:51:28.543Z,10.80
2017-08-29T13:53:55.935Z,14.70
2017-08-29T13:56:23.340Z,9.67
2017-08-29T13:58:50.732Z,10.97
2017-08-29T14:01:18.132Z,15.13
2017-08-29T14:03:45.732Z,8.90
2017-08-29T14:06:13.149Z,9.73
2017-08-29T14:08:40.759Z,8.37
2017-08-29T14:11:08.147Z,9.80
2017-08-29T14:13:35.531Z,10.50
2017-08-29T14:16:02.931Z,10.63
2017-08-29T14:18:30.334Z,8.77
2017-08-29T14:20:57.722Z,10.90
2017-08-29T14:23:25.124Z,8.80
2017-08-29T14:25:52.523Z,13.80
2017-08-29T14:28:19.911Z,8.93
2017-08-29T14:30:47.368Z,8.33
2017-08-29T14:33:14.788Z,13.40
2017-08-29T14:35:42.163Z,11.20
2017-08-29T14:38:09.560Z,9.13
2017-08-29T14:40:36.962Z,13.13
2017-08-29T14:43:04.351Z,8.67
2017-08-29T14:45:31.757Z,9.67
2017-08-29T14:48:11.689Z,9.47
2017-08-29T14:50:39.079Z,6.70
2017-08-29T14:53:06.491Z,7.00
2017-08-29T14:55:33.882Z,7.20
2017-08-29T14:58:01.271Z,6.60
2017-08-29T15:00:28.677Z,7.63
2017-08-29T15:02:56.055Z,6.87
2017-08-29T15:05:23.459Z,7.93
2017-08-29T15:07:50.848Z,8.23
2017-08-29T15:10:18.247Z,9.43
2017-08-29T15:12:45.847Z,7.83
2017-08-29T15:15:13.294Z,8.50
2017-08-29T15:17:40.667Z,7.70
2017-08-29T15:20:08.068Z,9.87
2017-08-29T15:22:35.457Z,10.10
2017-08-29T15:25:03.068Z,9.50
2017-08-29T15:27:30.459Z,9.37
2017-08-29T15:29:57.849Z,9.13
2017-08-29T15:32:25.239Z,7.77
2017-08-29T15:34:52.649Z,7.93
2017-08-29T15:37:20.033Z,7.53
2017-08-29T15:39:47.419Z,9.27
2017-08-29T15:42:14.833Z,8.83
2017-08-29T15:44:42.210Z,8.53
2017-08-29T15:47:09.891Z,7.27
2017-08-29T15:49:37.290Z,7.67
2017-08-29T15:52:04.688Z,10.20
2017-08-29T15:54:32.076Z,9.00
2017-08-29T15:56:59.540Z,8.07
2017-08-29T15:59:26.950Z,10.30
2017-08-29T16:01:54.379Z,8.70
2017-08-29T16:04:21.775Z,8.87
2017-08-29T16:06:49.175Z,7.37
2017-08-29T16:09:16.562Z,8.60
2017-08-29T16:11:43.971Z,10.57
2017-08-29T16:14:11.363Z,10.90
2017-08-29T16:16:38.746Z,9.83
2017-08-29T16:19:06.164Z,11.43
2017-08-29T16:21:33.538Z,8.77
2017-08-29T16:24:00.939Z,8.37
2017-08-29T16:26:28.319Z,8.50
2017-08-29T16:28:55.716Z,7.03
2017-08-29T16:31:23.111Z,9.13
2017-08-29T16:33:50.511Z,9.50
2017-08-29T16:36:17.914Z,7.83
2017-08-29T16:38:45.287Z,8.10
2017-08-29T16:41:12.671Z,8.50
2017-08-29T16:43:40.071Z,8.10
2017-08-29T16:46:07.454Z,7.67
2017-08-29T16:48:34.871Z,8.13
2017-08-29T16:51:02.260Z,6.70
2017-08-29T16:53:29.646Z,7.53
2017-08-29T16:55:57.069Z,8.13
2017-08-29T16:58:24.462Z,7.90
2017-08-29T17:00:51.850Z,7.27
2017-08-29T17:03:19.243Z,9.47
2017-08-29T17:05:46.639Z,7.90
2017-08-29T17:08:14.031Z,7.67
2017-08-29T17:10:41.418Z,9.93
2017-08-29T17:15:48.891Z,8.10
2017-08-29T17:18:16.294Z,9.40
2017-08-29T17:20:43.684Z,10.63
2017-08-29T17:23:11.313Z,9.10
2017-08-29T17:25:39.595Z,15.07
2017-08-29T17:28:06.997Z,9.37
2017-08-29T17:30:34.386Z,8.50
2017-08-29T17:33:01.788Z,11.80
2017-08-29T17:35:29.187Z,9.20
2017-08-29T17:37:56.566Z,9.13
2017-08-29T17:40:24.023Z,9.67
2017-08-29T17:42:51.411Z,9.60
2017-08-29T17:45:18.811Z,15.10
2017-08-29T17:47:46.203Z,9.40
2017-08-29T17:50:13.594Z,8.87
2017-08-29T17:52:43.331Z,9.30
2017-08-29T17:55:10.838Z,10.03
2017-08-29T17:57:38.229Z,20.63
2017-08-29T18:00:05.628Z,18.60
2017-08-29T18:02:33.027Z,13.20
2017-08-29T18:05:00.411Z,9.50
2017-08-29T18:07:27.819Z,10.57
2017-08-29T18:09:55.219Z,18.90
2017-08-29T18:12:22.611Z,17.30
2017-08-29T18:14:50.004Z,27.37
2017-08-29T18:17:17.406Z,20.70
2017-08-29T18:19:44.803Z,24.87
2017-08-29T18:22:12.214Z,24.80
2017-08-29T18:24:39.621Z,22.00
2017-08-29T18:27:07.038Z,10.37
2017-08-29T18:29:34.434Z,14.00
2017-08-29T18:32:01.852Z,12.40
2017-08-29T18:34:29.255Z,15.00
2017-08-29T18:36:56.647Z,19.10
2017-08-29T18:39:24.035Z,10.93
2017-08-29T18:41:51.506Z,10.57
2017-08-29T18:44:18.911Z,17.97
2017-08-29T18:46:46.315Z,16.83
2017-08-29T18:49:13.722Z,16.80
2017-08-29T18:51:41.340Z,17.33
2017-08-29T18:54:08.892Z,20.83
2017-08-29T18:56:36.315Z,14.90
2017-08-29T18:59:03.698Z,18.60
2017-08-29T19:01:31.111Z,22.07
2017-08-29T19:03:58.508Z,14.07
2017-08-29T19:06:25.911Z,21.03
2017-08-29T19:08:53.311Z,19.23
2017-08-29T19:11:20.721Z,20.93
2017-08-29T19:13:48.168Z,21.23
2017-08-29T19:16:15.582Z,16.60
2017-08-29T19:18:43.053Z,17.67
2017-08-29T19:21:10.507Z,15.10
2017-08-29T19:23:37.898Z,13.63
2017-08-29T19:26:05.312Z,19.03
2017-08-29T19:28:32.711Z,13.17
2017-08-29T19:31:00.172Z,15.73
2017-08-29T19:33:27.574Z,12.77
2017-08-29T19:35:55.199Z,14.73
2017-08-29T19:38:22.599Z,16.60
2017-08-29T19:40:49.994Z,13.83
2017-08-29T19:43:17.434Z,13.17
2017-08-29T19:45:44.835Z,15.10
2017-08-29T19:48:12.227Z,13.20
2017-08-29T19:50:39.627Z,16.90
2017-08-29T19:53:07.247Z,13.13
2017-08-29T19:55:34.644Z,12.17
2017-08-29T19:58:02.047Z,13.33
2017-08-29T20:00:29.447Z,14.87
2017-08-29T20:02:56.842Z,13.17
2017-08-29T20:05:24.249Z,14.73
2017-08-29T20:07:51.647Z,13.47
2017-08-29T20:10:19.043Z,19.30
2017-08-29T20:12:46.447Z,12.93
2017-08-29T20:15:13.848Z,16.77
2017-08-29T20:17:41.266Z,19.30
2017-08-29T20:20:08.871Z,14.07
2017-08-29T20:22:36.271Z,14.93
2017-08-29T20:25:03.668Z,13.73
2017-08-29T20:27:31.076Z,15.67
2017-08-29T20:29:58.483Z,14.20
2017-08-29T20:32:25.874Z,13.87
2017-08-29T20:34:53.280Z,14.43
2017-08-29T20:37:20.678Z,15.03
2017-08-29T20:39:48.112Z,14.20
2017-08-29T20:42:15.487Z,14.23
2017-08-29T20:44:42.891Z,13.17
2017-08-29T20:47:10.775Z,16.07
2017-08-29T20:49:38.193Z,13.20
2017-08-29T20:52:05.623Z,12.93
2017-08-29T20:54:33.030Z,15.90
2017-08-29T20:57:00.443Z,13.87
2017-08-29T20:59:27.842Z,14.87
2017-08-29T21:01:55.250Z,13.00
2017-08-29T21:04:22.655Z,16.17
2017-08-29T21:06:50.071Z,13.47
2017-08-29T21:09:17.487Z,15.13
2017-08-29T21:11:45.106Z,18.23
2017-08-29T21:14:12.524Z,14.13
2017-08-29T21:16:39.918Z,13.83
2017-08-29T21:19:07.321Z,13.57
2017-08-29T21:21:34.718Z,15.87
2017-08-29T21:24:02.119Z,13.40
2017-08-29T21:26:29.528Z,19.27
2017-08-29T21:28:56.932Z,17.93
2017-08-29T21:31:24.339Z,14.30
2017-08-29T21:33:51.744Z,14.93
2017-08-29T21:36:19.154Z,15.07
2017-08-29T21:38:46.552Z,15.83
2017-08-29T21:41:13.955Z,15.30
2017-08-29T21:43:41.564Z,17.73
2017-08-29T21:46:08.970Z,21.03
2017-08-29T21:48:36.385Z,17.73
2017-08-29T21:51:04.002Z,17.57
2017-08-29T21:53:31.399Z,17.47
2017-08-29T21:55:58.807Z,17.10
2017-08-29T21:58:26.202Z,17.80
2017-08-29T22:00:53.639Z,16.80
2017-08-29T22:03:21.030Z,16.83
2017-08-29T22:05:48.453Z,16.70
2017-08-29T22:08:15.851Z,19.60
2017-08-29T22:10:43.263Z,17.23
2017-08-29T22:13:10.651Z,17.97
2017-08-29T22:15:38.051Z,15.80
2017-08-29T22:18:05.456Z,16.20
2017-08-29T22:20:32.874Z,18.67
2017-08-29T22:23:00.267Z,18.70
2017-08-29T22:25:27.654Z,16.67
2017-08-29T22:27:55.068Z,19.20
2017-08-29T22:30:22.468Z,16.50
2017-08-29T22:32:49.881Z,19.30
2017-08-29T22:35:17.270Z,17.70
2017-08-29T22:37:44.662Z,16.17
2017-08-29T22:40:12.058Z,21.67
2017-08-29T22:42:39.460Z,15.50
2017-08-29T22:45:06.850Z,17.37
2017-08-29T22:47:34.260Z,17.30
2017-08-29T22:50:01.659Z,16.57
2017-08-29T22:52:29.059Z,21.33
2017-08-29T22:54:56.448Z,18.10
2017-08-29T22:57:23.864Z,18.83
2017-08-29T22:59:51.258Z,17.37
2017-08-29T23:02:18.663Z,17.53
2017-08-29T23:04:46.063Z,16.40
2017-08-29T23:07:13.464Z,17.00
2017-08-29T23:09:40.867Z,16.77
2017-08-29T23:12:08.264Z,17.50
2017-08-29T23:14:35.672Z,19.00
2017-08-29T23:17:03.067Z,17.27
2017-08-29T23:19:30.457Z,17.97
2017-08-29T23:21:57.846Z,23.83
2017-08-29T23:24:25.256Z,19.47
2017-08-29T23:26:52.651Z,17.97
2017-08-29T23:29:20.059Z,23.93
2017-08-29T23:31:47.489Z,22.40
2017-08-29T23:34:14.882Z,22.27
2017-08-29T23:36:42.274Z,20.07
2017-08-29T23:39:09.886Z,22.20
2017-08-29T23:41:37.279Z,23.30
2017-08-29T23:44:04.695Z,22.97
2017-08-29T23:46:32.115Z,23.80
2017-08-29T23:48:59.711Z,24.60
2017-08-29T23:51:27.335Z,25.43
2017-08-29T23:53:54.727Z,30.90
2017-08-29T23:56:22.131Z,25.40
2017-08-29T23:58:49.531Z,24.57
